Time;durP1;ratioP1;P1;durP2;ratioP2;P2;SDS_P1;SDS_P2;PMS_P1;PMS_P2;Temp;Humidity;BMP_temperature;BMP_pressure;BME280_temperature;BME280_humidity;BME280_pressure;Samples;Min_cycle;Max_cycle;Signal;HPM_P1;HPM_P2
2023/01/13 00:01:20;;;;;;;;;0.00;0.00;;;;;13.01;75.86;100369.50;6244422;22;45542;-82
2023/01/13 00:03:46;;;;;;;;;0.00;0.00;;;;;12.85;76.10;100340.22;6272197;22;45635;-81
2023/01/13 00:06:15;;;;;;;;;0.00;0.00;;;;;12.95;75.87;100375.31;6272218;22;45618;-80
2023/01/13 00:08:44;;;;;;;;;0.00;0.00;;;;;12.84;76.45;100399.03;6271470;22;47289;-78
2023/01/13 00:11:10;;;;;;;;;0.00;0.00;;;;;12.84;76.90;100411.34;6271346;22;45496;-80
2023/01/13 00:13:36;;;;;;;;;0.50;0.00;;;;;12.67;77.08;100396.97;6271996;22;45672;-80
2023/01/13 00:16:15;;;;;;;;;0.00;0.00;;;;;12.60;77.11;100383.50;6271401;22;47080;-78
2023/01/13 00:18:40;;;;;;;;;0.00;0.00;;;;;12.56;77.31;100391.78;6296542;22;45915;-79
2023/01/13 00:21:12;;;;;;;;;0.00;0.00;;;;;12.51;76.75;100386.91;6303946;22;45574;-79
2023/01/13 00:23:38;;;;;;;;;0.00;0.00;;;;;12.28;76.51;100352.97;6277129;22;45990;-78
2023/01/13 00:26:07;;;;;;;;;0.00;0.00;;;;;12.37;75.86;100376.69;6305682;22;46337;-80
2023/01/13 00:28:32;;;;;;;;;0.00;0.00;;;;;12.34;76.05;100373.47;6306096;22;47680;-79
2023/01/13 00:31:09;;;;;;;;;0.00;0.00;;;;;12.31;76.10;100376.38;6304126;22;45552;-80
2023/01/13 00:33:36;;;;;;;;;0.25;0.00;;;;;12.32;75.87;100378.84;6305805;22;45688;-79
2023/01/13 00:36:04;;;;;;;;;0.00;0.00;;;;;12.33;75.49;100374.44;6309791;22;46595;-78
2023/01/13 00:38:37;;;;;;;;;0.00;0.00;;;;;12.31;75.34;100373.75;6306446;22;46350;-80
2023/01/13 00:41:23;;;;;;;;;0.00;0.00;;;;;12.28;75.22;100377.44;6249682;22;45666;-79
2023/01/13 00:43:49;;;;;;;;;0.00;0.00;;;;;12.24;74.85;100383.91;6303390;22;45733;-79
2023/01/13 00:46:19;;;;;;;;;0.00;0.00;;;;;12.16;74.93;100374.03;6303006;22;46087;-80
2023/01/13 00:49:04;;;;;;;;;0.00;0.00;;;;;12.05;74.50;100336.47;6302908;22;45921;-79
2023/01/13 00:51:29;;;;;;;;;0.00;0.00;;;;;11.93;74.51;100322.53;6300750;22;45679;-80
2023/01/13 00:53:54;;;;;;;;;0.00;0.00;;;;;11.72;74.50;100288.31;6302958;22;45607;-80
2023/01/13 00:56:22;;;;;;;;;0.00;0.00;;;;;12.06;74.34;100340.75;6303103;22;45773;-80
2023/01/13 00:58:47;;;;;;;;;0.00;0.00;;;;;12.09;74.11;100353.66;6303349;22;45671;-82
2023/01/13 01:01:15;;;;;;;;;0.00;0.00;;;;;12.07;73.96;100356.38;6303994;22;45553;-81
2023/01/13 01:10:14;;;;;;;;;0.00;0.00;;;;;12.02;73.55;100378.72;6302807;22;45844;-80
2023/01/13 01:12:39;;;;;;;;;0.00;0.00;;;;;12.06;73.82;100369.63;6303153;22;45555;-78
2023/01/13 01:15:16;;;;;;;;;0.00;0.00;;;;;11.73;73.52;100318.91;6304226;22;45449;-80
2023/01/13 01:17:41;;;;;;;;;0.00;0.00;;;;;12.01;73.43;100364.75;6303317;22;45585;-77
2023/01/13 01:20:08;;;;;;;;;0.00;0.00;;;;;12.05;73.64;100362.72;6302842;22;45533;-79
2023/01/13 01:22:33;;;;;;;;;0.75;0.00;;;;;12.07;73.55;100366.91;6304188;22;45618;-79
2023/01/13 01:24:59;;;;;;;;;0.00;0.00;;;;;12.08;73.53;100370.34;6305927;22;45623;-79
2023/01/13 01:27:28;;;;;;;;;0.00;0.00;;;;;11.88;73.13;100329.94;6280105;22;46178;-80
2023/01/13 01:29:53;;;;;;;;;0.00;0.00;;;;;11.67;73.00;100298.38;6309781;22;45455;-80
2023/01/13 01:32:18;;;;;;;;;0.00;0.00;;;;;12.06;73.00;100375.72;6307109;22;45621;-81
2023/01/13 01:38:09;;;;;;;;;0.00;0.00;;;;;12.03;72.53;100362.84;6304992;22;45532;-77
2023/01/13 01:40:34;;;;;;;;;0.00;0.00;;;;;12.00;72.59;100362.25;6303526;22;46637;-79
2023/01/13 01:46:00;;;;;;;;;1.00;0.00;;;;;11.94;72.09;100354.88;6302643;22;45677;-79
2023/01/13 01:48:29;;;;;;;;;0.25;0.00;;;;;11.95;72.14;100361.78;6303058;22;46200;-79
2023/01/13 01:54:23;;;;;;;;;0.25;0.00;;;;;11.83;71.79;100342.59;6302190;22;45617;-82
2023/01/13 01:56:51;;;;;;;;;0.00;0.00;;;;;11.87;72.00;100353.72;6303107;22;45580;-78
2023/01/13 01:59:17;;;;;;;;;0.00;0.00;;;;;11.86;71.73;100352.03;6302947;22;45478;-78
2023/01/13 02:01:44;;;;;;;;;0.75;0.00;;;;;11.65;71.50;100331.78;6301854;22;45965;-77
2023/01/13 02:04:22;;;;;;;;;0.00;0.00;;;;;11.82;71.47;100358.50;6302469;22;45680;-80
2023/01/13 02:10:13;;;;;;;;;0.00;0.00;;;;;11.66;71.31;100370.16;6302160;22;45587;-79
2023/01/13 02:12:41;;;;;;;;;1.00;0.00;;;;;11.69;71.53;100385.69;6303160;22;45820;-81
2023/01/13 02:15:08;;;;;;;;;1.00;0.00;;;;;11.66;71.42;100374.59;6303850;22;45367;-78
2023/01/13 02:18:01;;;;;;;;;0.00;0.00;;;;;11.61;71.25;100369.69;6304451;22;45664;-80
2023/01/13 02:20:44;;;;;;;;;0.00;0.00;;;;;11.66;71.48;100385.09;6309246;22;47662;-78
2023/01/13 02:27:02;;;;;;;;;0.00;0.00;;;;;11.64;71.35;100389.63;6304126;22;45581;-76
2023/01/13 02:32:32;;;;;;;;;1.00;0.00;;;;;11.61;71.52;100380.19;6303516;22;46016;-80
2023/01/13 02:35:00;;;;;;;;;0.00;0.00;;;;;11.61;71.33;100406.44;6303511;22;45578;-80
2023/01/13 02:37:30;;;;;;;;;1.00;0.00;;;;;11.53;71.30;100390.47;6278778;22;45703;-78
2023/01/13 02:40:00;;;;;;;;;0.00;0.00;;;;;11.53;71.45;100400.97;6306297;22;45624;-78
2023/01/13 02:45:29;;;;;;;;;0.00;0.00;;;;;11.30;71.53;100359.94;6306378;22;45465;-78
2023/01/13 02:47:58;;;;;;;;;0.00;0.00;;;;;11.48;71.98;100392.63;6279411;22;45660;-77
2023/01/13 02:53:53;;;;;;;;;0.00;0.00;;;;;11.44;71.76;100396.44;6303136;22;45677;-80
2023/01/13 02:56:22;;;;;;;;;0.00;0.00;;;;;11.49;71.77;100403.97;6301829;22;47117;-79
2023/01/13 02:58:49;;;;;;;;;0.50;0.00;;;;;11.45;71.58;100410.38;6301592;22;45764;-80
2023/01/13 03:01:16;;;;;;;;;1.00;0.00;;;;;11.44;71.69;100411.34;6302719;22;45878;-80
2023/01/13 03:03:43;;;;;;;;;0.00;0.00;;;;;11.42;71.35;100408.00;6302464;22;46853;-81
2023/01/13 03:09:41;;;;;;;;;0.00;0.00;;;;;11.32;71.39;100413.97;6303458;22;45590;-81
2023/01/13 03:12:33;;;;;;;;;0.00;0.00;;;;;11.37;71.65;100429.34;6304458;22;45613;-81
2023/01/13 03:15:14;;;;;;;;;0.50;0.00;;;;;11.35;71.42;100426.84;6307680;22;46412;-81
2023/01/13 03:18:00;;;;;;;;;0.25;0.00;;;;;11.28;71.41;100419.56;6308091;22;47060;-80
2023/01/13 03:20:31;;;;;;;;;0.00;0.00;;;;;11.33;71.47;100434.00;6303888;22;45495;-80
2023/01/13 03:27:05;;;;;;;;;0.00;0.00;;;;;11.41;71.52;100430.78;6302058;22;45551;-80
2023/01/13 03:29:40;;;;;;;;;0.00;0.00;;;;;11.37;71.17;100421.47;6237796;22;45700;-80
2023/01/13 03:32:12;;;;;;;;;1.00;0.00;;;;;11.45;70.98;100428.72;6237080;22;45637;-81
2023/01/13 03:34:48;;;;;;;;;1.00;0.00;;;;;11.46;70.99;100431.25;6237411;22;45582;-80
2023/01/13 03:37:18;;;;;;;;;0.00;0.00;;;;;11.46;70.96;100439.13;6236989;22;45603;-81
2023/01/13 03:39:49;;;;;;;;;1.75;0.00;;;;;11.50;70.97;100440.53;6237269;22;45978;-81
2023/01/13 03:42:22;;;;;;;;;1.00;0.00;;;;;11.53;70.71;100442.94;6237274;22;45580;-80
2023/01/13 03:44:56;;;;;;;;;0.00;0.00;;;;;11.50;70.53;100435.28;6237236;22;45654;-80
2023/01/13 03:47:35;;;;;;;;;0.00;0.00;;;;;11.48;70.31;100437.22;6237914;22;47447;-79
2023/01/13 03:50:30;;;;;;;;;0.25;0.00;;;;;10.93;70.07;100349.69;6212104;22;48082;-83
2023/01/13 03:53:12;;;;;;;;;1.75;0.00;;;;;11.25;70.30;100398.81;6213511;22;45671;-80
2023/01/13 03:55:54;;;;;;;;;0.00;0.00;;;;;11.05;70.32;100382.00;6213595;22;45839;-81
2023/01/13 03:58:37;;;;;;;;;0.00;0.00;;;;;11.31;69.94;100424.56;6241111;22;45578;-83
2023/01/13 04:01:20;;;;;;;;;0.00;0.00;;;;;11.16;69.91;100384.63;6189427;22;47327;-84
2023/01/13 04:04:16;;;;;;;;;1.00;0.00;;;;;11.40;70.13;100433.50;6279597;22;45736;-81
2023/01/13 04:10:09;;;;;;;;;0.00;0.00;;;;;11.32;70.04;100428.88;6309137;22;46086;-84
2023/01/13 04:13:03;;;;;;;;;1.75;0.00;;;;;11.34;69.96;100434.81;6307408;22;45416;-83
2023/01/13 04:15:41;;;;;;;;;1.00;0.00;;;;;11.35;69.97;100437.31;6307378;22;45493;-80
2023/01/13 04:18:47;;;;;;;;;0.00;0.00;;;;;11.39;69.71;100451.03;6309153;22;45589;-81
2023/01/13 04:21:12;;;;;;;;;1.00;0.00;;;;;11.33;69.77;100436.63;6305823;22;45634;-81
2023/01/13 04:26:59;;;;;;;;;0.25;0.00;;;;;11.30;69.63;100436.00;6303408;22;45618;-82
2023/01/13 04:29:25;;;;;;;;;1.00;0.00;;;;;11.34;69.29;100443.53;6303761;22;45729;-79
2023/01/13 04:31:53;;;;;;;;;0.00;0.00;;;;;11.38;69.43;100454.63;6302710;22;46383;-81
2023/01/13 04:34:19;;;;;;;;;0.00;0.00;;;;;11.33;69.31;100460.22;6302621;22;46920;-81
2023/01/13 04:36:44;;;;;;;;;2.00;0.00;;;;;11.23;69.13;100442.66;6302607;22;45898;-82
2023/01/13 04:42:31;;;;;;;;;0.00;0.00;;;;;11.30;68.92;100484.06;6303390;22;45543;-81
2023/01/13 04:44:57;;;;;;;;;0.50;0.00;;;;;11.28;68.66;100487.75;6302814;22;46155;-81
2023/01/13 04:47:22;;;;;;;;;0.00;0.00;;;;;11.19;68.54;100470.09;6275972;22;45614;-82
2023/01/13 04:49:47;;;;;;;;;0.00;0.00;;;;;11.26;68.56;100487.88;6303627;22;45559;-81
2023/01/13 04:52:12;;;;;;;;;0.50;0.00;;;;;11.22;68.32;100481.19;6304145;22;45615;-81
2023/01/13 04:54:38;;;;;;;;;0.00;0.00;;;;;11.20;68.08;100483.09;6304036;22;45991;-81
2023/01/13 04:57:03;;;;;;;;;1.00;0.00;;;;;11.14;68.07;100501.06;6305879;22;45514;-79
2023/01/13 04:59:28;;;;;;;;;0.00;0.00;;;;;11.16;68.15;100491.31;6307008;22;45718;-82
2023/01/13 05:01:54;;;;;;;;;0.00;0.00;;;;;11.12;68.29;100487.25;6308219;22;46391;-80
2023/01/13 05:04:20;;;;;;;;;0.00;0.00;;;;;11.11;68.35;100499.53;6313821;22;45776;-76
2023/01/13 05:06:45;;;;;;;;;0.00;0.00;;;;;11.06;68.08;100511.31;6313572;22;45586;-81
2023/01/13 05:18:00;;;;;;;;;0.00;0.00;;;;;10.97;68.19;100494.44;6302404;22;45523;-80
2023/01/13 05:20:25;;;;;;;;;0.00;0.00;;;;;10.92;68.04;100502.66;6302754;22;45625;-79
2023/01/13 05:25:38;;;;;;;;;1.00;0.00;;;;;10.88;68.13;100503.84;6303472;22;45754;-81
2023/01/13 05:28:04;;;;;;;;;0.00;0.00;;;;;10.88;68.19;100521.34;6303384;22;45698;-81
2023/01/13 05:30:32;;;;;;;;;0.00;0.00;;;;;10.84;68.07;100514.69;6248840;22;45570;-81
2023/01/13 05:32:57;;;;;;;;;0.00;0.00;;;;;10.78;67.99;100521.19;6302741;22;45510;-79
2023/01/13 05:35:23;;;;;;;;;0.00;0.00;;;;;10.79;68.08;100533.34;6302992;22;46273;-79
2023/01/13 05:37:49;;;;;;;;;0.25;0.00;;;;;10.80;68.12;100552.50;6302295;22;45451;-77
2023/01/13 05:43:19;;;;;;;;;1.00;0.00;;;;;10.80;68.11;100536.78;6302716;22;45667;-80
2023/01/13 05:45:56;;;;;;;;;0.00;0.00;;;;;10.72;67.76;100541.78;6303140;22;46102;-79
2023/01/13 05:48:23;;;;;;;;;0.75;0.00;;;;;10.67;67.70;100541.25;6303638;22;45572;-78
2023/01/13 05:50:49;;;;;;;;;0.00;0.00;;;;;10.68;67.88;100551.66;6305348;22;45712;-78
2023/01/13 05:53:16;;;;;;;;;0.75;0.00;;;;;10.63;67.88;100540.66;6305671;22;45767;-78
2023/01/13 05:55:41;;;;;;;;;0.00;0.00;;;;;10.53;67.77;100532.59;6308586;22;46417;-77
2023/01/13 05:58:09;;;;;;;;;0.00;0.00;;;;;10.57;67.63;100566.47;6311346;22;45361;-77
2023/01/13 06:00:35;;;;;;;;;1.00;0.00;;;;;10.55;67.83;100565.72;6309044;22;45456;-77
2023/01/13 06:03:00;;;;;;;;;0.00;0.00;;;;;10.49;67.93;100569.63;6303004;22;45513;-77
2023/01/13 06:05:27;;;;;;;;;0.00;0.00;;;;;10.49;67.94;100565.22;6302162;22;46378;-77
2023/01/13 06:14:19;;;;;;;;;0.00;0.00;;;;;10.46;67.80;100581.16;6302405;22;46075;-80
2023/01/13 06:16:45;;;;;;;;;2.00;0.00;;;;;10.42;67.75;100589.31;6303830;22;45460;-77
2023/01/13 06:19:12;;;;;;;;;0.00;0.00;;;;;10.35;67.71;100567.16;6302719;22;45782;-79
2023/01/13 06:21:38;;;;;;;;;0.50;0.00;;;;;10.42;67.39;100597.19;6303956;22;45618;-79
2023/01/13 06:24:04;;;;;;;;;0.00;0.00;;;;;10.35;67.68;100585.47;6301951;22;46357;-79
2023/01/13 06:26:39;;;;;;;;;0.00;0.00;;;;;10.40;67.62;100591.22;6301778;22;46636;-78
2023/01/13 06:29:05;;;;;;;;;0.75;0.00;;;;;10.41;67.60;100604.22;6302183;22;45530;-79
2023/01/13 06:31:34;;;;;;;;;1.75;0.00;;;;;10.40;67.74;100620.03;6300332;22;45652;-76
2023/01/13 06:34:06;;;;;;;;;1.25;0.00;;;;;10.35;67.70;100603.81;6301664;22;46552;-78
2023/01/13 06:36:37;;;;;;;;;0.50;0.50;;;;;10.39;67.84;100613.13;6301490;22;46040;-77
2023/01/13 06:39:03;;;;;;;;;0.00;0.00;;;;;10.37;67.74;100613.22;6300890;22;45719;-77
2023/01/13 06:44:18;;;;;;;;;1.00;1.00;;;;;10.37;67.28;100628.09;6302336;22;46060;-77
2023/01/13 06:46:44;;;;;;;;;1.00;0.00;;;;;10.38;67.34;100632.38;6301794;22;46275;-74
2023/01/13 06:49:10;;;;;;;;;0.75;0.00;;;;;10.35;67.12;100614.28;6301639;22;45595;-74
2023/01/13 06:51:35;;;;;;;;;1.00;0.00;;;;;10.39;67.35;100621.81;6302669;22;45508;-74
2023/01/13 06:54:01;;;;;;;;;2.25;0.75;;;;;10.33;67.05;100608.31;6304361;22;45653;-74
2023/01/13 06:56:26;;;;;;;;;1.50;0.50;;;;;10.40;66.99;100633.13;6301614;22;45926;-74
2023/01/13 06:58:51;;;;;;;;;1.00;1.00;;;;;10.38;67.12;100635.84;6301444;22;45502;-73
2023/01/13 07:01:17;;;;;;;;;1.75;0.00;;;;;10.39;66.93;100634.91;6301765;22;45601;-74
2023/01/13 07:03:42;;;;;;;;;1.00;0.00;;;;;10.41;66.70;100637.44;6301368;22;46432;-75
2023/01/13 07:06:07;;;;;;;;;3.00;0.00;;;;;10.42;66.67;100642.53;6301412;22;46206;-74
2023/01/13 07:08:33;;;;;;;;;0.75;0.00;;;;;10.42;66.85;100645.16;6301424;22;45569;-74
2023/01/13 07:17:03;;;;;;;;;0.00;0.00;;;;;10.37;66.49;100670.84;6301265;22;45754;-74
2023/01/13 07:19:29;;;;;;;;;1.50;0.25;;;;;10.41;66.92;100671.47;6301147;22;45496;-73
2023/01/13 07:21:54;;;;;;;;;0.00;0.00;;;;;10.41;66.68;100674.09;6301632;22;45597;-74
2023/01/13 07:24:21;;;;;;;;;0.00;0.00;;;;;10.39;66.92;100679.44;6300865;22;46786;-76
2023/01/13 07:26:46;;;;;;;;;1.00;0.00;;;;;10.39;66.89;100684.66;6301846;22;46494;-73
2023/01/13 07:29:12;;;;;;;;;1.75;0.00;;;;;10.27;67.09;100674.19;6302639;22;45697;-74
2023/01/13 07:31:38;;;;;;;;;1.00;0.50;;;;;10.31;67.18;100676.50;6302625;22;45726;-74
2023/01/13 07:34:04;;;;;;;;;0.50;0.00;;;;;10.29;67.16;100675.78;6303064;22;45475;-74
2023/01/13 07:36:30;;;;;;;;;0.25;0.00;;;;;10.29;67.19;100672.31;6301749;22;46130;-75
2023/01/13 07:38:55;;;;;;;;;1.25;0.00;;;;;10.31;67.27;100691.38;6273495;22;45695;-74
2023/01/13 07:44:42;;;;;;;;;1.00;0.00;;;;;10.25;67.47;100691.81;6302302;22;46075;-74
2023/01/13 07:47:09;;;;;;;;;1.00;0.00;;;;;10.26;67.63;100711.78;6306692;22;46328;-75
2023/01/13 07:49:35;;;;;;;;;1.00;0.00;;;;;10.23;67.53;100691.06;6306989;22;45596;-74
2023/01/13 07:52:01;;;;;;;;;0.00;0.00;;;;;10.23;67.62;100705.00;6307080;22;45692;-74
2023/01/13 07:54:26;;;;;;;;;1.75;1.00;;;;;10.24;67.84;100701.44;6301415;22;47106;-75
2023/01/13 07:56:51;;;;;;;;;1.50;0.75;;;;;10.24;67.82;100706.69;6302971;22;46087;-74
2023/01/13 07:59:17;;;;;;;;;3.00;0.50;;;;;10.17;67.72;100705.41;6302598;22;45605;-74
2023/01/13 08:01:42;;;;;;;;;0.75;0.00;;;;;10.23;67.82;100725.94;6301911;22;45534;-75
2023/01/13 08:04:07;;;;;;;;;2.00;0.00;;;;;10.24;67.74;100726.78;6302497;22;46436;-75
2023/01/13 08:06:33;;;;;;;;;1.25;1.00;;;;;10.10;67.67;100711.94;6302600;22;45607;-74
2023/01/13 08:08:58;;;;;;;;;1.75;0.00;;;;;10.24;67.87;100745.94;6303025;22;45447;-74
2023/01/13 08:14:45;;;;;;;;;2.00;0.00;;;;;10.27;68.07;100744.88;6302553;22;46115;-75
2023/01/13 08:17:11;;;;;;;;;1.25;0.00;;;;;10.27;67.99;100730.03;6302052;22;47222;-75
2023/01/13 08:19:36;;;;;;;;;1.00;0.00;;;;;10.27;67.95;100753.59;6302157;22;45450;-74
2023/01/13 08:22:01;;;;;;;;;0.00;0.00;;;;;10.28;67.88;100746.56;6302478;22;45508;-75
2023/01/13 08:24:27;;;;;;;;;2.00;0.00;;;;;10.22;68.06;100744.38;6302023;22;47256;-75
2023/01/13 08:30:14;;;;;;;;;1.25;0.00;;;;;10.24;68.21;100772.13;6302960;22;45624;-74
2023/01/13 08:32:49;;;;;;;;;1.00;0.00;;;;;10.19;67.84;100776.84;6303863;22;45534;-74
2023/01/13 08:35:16;;;;;;;;;0.00;0.00;;;;;10.09;68.37;100749.56;6302663;22;47640;-75
2023/01/13 08:37:42;;;;;;;;;2.50;1.50;;;;;10.17;68.39;100763.00;6302987;22;46992;-74
2023/01/13 08:40:11;;;;;;;;;1.00;0.25;;;;;10.23;68.29;100769.59;6303619;22;45630;-74
2023/01/13 08:42:36;;;;;;;;;1.25;0.25;;;;;10.26;68.26;100780.69;6305465;22;45645;-74
2023/01/13 08:45:03;;;;;;;;;1.00;0.00;;;;;10.28;68.33;100778.84;6304697;22;47342;-74
2023/01/13 08:47:28;;;;;;;;;1.00;0.00;;;;;10.29;68.19;100793.59;6303484;22;46758;-73
2023/01/13 08:49:54;;;;;;;;;0.75;0.00;;;;;10.30;68.19;100791.84;6302074;22;45527;-75
2023/01/13 08:52:20;;;;;;;;;1.25;0.25;;;;;10.30;68.25;100779.59;6302448;22;45745;-75
2023/01/13 08:54:45;;;;;;;;;0.75;0.00;;;;;10.28;68.13;100780.59;6303000;22;46909;-75
2023/01/13 09:00:32;;;;;;;;;0.75;0.50;;;;;10.27;68.13;100778.94;6303023;22;45654;-75
2023/01/13 09:02:58;;;;;;;;;0.50;0.00;;;;;10.27;68.07;100790.25;6302519;22;45620;-75
2023/01/13 09:05:24;;;;;;;;;2.75;1.00;;;;;10.29;68.00;100783.13;6302091;22;47250;-74
2023/01/13 09:07:49;;;;;;;;;2.00;1.00;;;;;10.31;68.08;100796.94;6301794;22;46247;-75
2023/01/13 09:10:15;;;;;;;;;2.25;1.00;;;;;10.35;68.00;100789.75;6302709;22;45553;-74
2023/01/13 09:15:27;;;;;;;;;2.75;0.00;;;;;10.37;67.79;100803.56;6302127;22;45588;-74
2023/01/13 09:17:52;;;;;;;;;1.00;0.00;;;;;10.36;67.78;100800.13;6301820;22;46178;-74
2023/01/13 09:20:18;;;;;;;;;1.00;0.75;;;;;10.38;68.04;100800.00;6302819;22;45581;-76
2023/01/13 09:22:44;;;;;;;;;0.00;0.00;;;;;10.41;67.69;100805.06;6302589;22;45362;-74
2023/01/13 09:25:11;;;;;;;;;1.75;0.75;;;;;10.42;67.72;100806.69;6301969;22;46602;-75
2023/01/13 09:31:01;;;;;;;;;2.25;0.50;;;;;10.48;67.56;100811.53;6302445;22;45665;-76
2023/01/13 09:36:10;;;;;;;;;0.00;0.00;;;;;10.44;67.30;100803.06;6303597;22;45482;-74
2023/01/13 09:38:36;;;;;;;;;1.75;1.00;;;;;10.49;67.37;100800.13;6305739;22;45813;-75
2023/01/13 09:43:52;;;;;;;;;0.25;0.25;;;;;10.51;67.12;100830.53;6305811;22;46723;-74
2023/01/13 09:43:57;;;;;;;;;1.00;0.00;;;;;10.52;67.09;100824.34;6302472;22;45582;-75
2023/01/13 09:46:48;;;;;;;;;2.50;0.75;;;;;10.53;66.71;100823.38;6302955;22;46348;-73
2023/01/13 09:49:31;;;;;;;;;2.00;1.00;;;;;10.58;66.84;100820.44;6301711;22;47005;-74
2023/01/13 09:52:18;;;;;;;;;0.00;0.00;;;;;10.65;66.75;100836.59;6302851;22;45428;-74
2023/01/13 09:54:47;;;;;;;;;1.50;1.00;;;;;10.72;66.66;100843.94;6303460;22;45810;-74
2023/01/13 09:57:14;;;;;;;;;1.75;1.00;;;;;10.64;66.29;100841.00;6303131;22;46628;-74
2023/01/13 09:59:41;;;;;;;;;3.00;1.00;;;;;10.76;66.12;100850.66;6303540;22;46212;-74
2023/01/13 10:02:29;;;;;;;;;2.00;1.75;;;;;10.77;65.41;100860.19;6302792;22;45486;-75
2023/01/13 10:05:04;;;;;;;;;1.00;1.00;;;;;10.77;65.59;100851.50;6302703;22;45514;-74
2023/01/13 10:07:36;;;;;;;;;1.00;0.00;;;;;10.76;65.72;100840.16;6301929;22;47395;-73
2023/01/13 10:10:05;;;;;;;;;2.00;0.50;;;;;10.79;65.16;100833.88;6302338;22;45895;-75
2023/01/13 10:15:25;;;;;;;;;1.00;0.50;;;;;10.75;65.00;100845.50;6301544;22;45759;-75
2023/01/13 10:18:10;;;;;;;;;1.00;0.00;;;;;10.76;64.86;100849.81;6301457;22;46311;-75
2023/01/13 10:20:53;;;;;;;;;1.75;0.00;;;;;10.74;64.98;100856.94;6302784;22;45744;-74
2023/01/13 10:23:50;;;;;;;;;3.00;0.00;;;;;10.80;64.93;100865.22;6302439;22;45468;-74
2023/01/13 10:29:37;;;;;;;;;2.00;0.00;;;;;10.84;65.02;100892.06;6301953;22;45544;-74
2023/01/13 10:32:03;;;;;;;;;0.00;0.00;;;;;10.84;64.82;100907.81;6302900;22;45570;-75
2023/01/13 10:34:29;;;;;;;;;0.00;0.00;;;;;10.83;64.70;100864.19;6303696;22;45763;-74
2023/01/13 10:37:07;;;;;;;;;0.00;0.00;;;;;10.85;64.66;100868.34;6302548;22;45832;-74
2023/01/13 10:39:41;;;;;;;;;1.00;0.00;;;;;10.88;64.72;100859.47;6301704;22;46363;-73
2023/01/13 10:45:28;;;;;;;;;3.00;2.25;;;;;10.93;64.72;100876.56;6301723;22;45723;-74
2023/01/13 10:48:09;;;;;;;;;1.25;0.00;;;;;11.00;64.63;100879.59;6301118;22;45763;-74
2023/01/13 10:50:36;;;;;;;;;0.00;0.00;;;;;11.04;64.83;100894.16;6302247;22;45580;-74
2023/01/13 10:53:16;;;;;;;;;1.00;0.00;;;;;11.06;64.71;100886.22;6302315;22;46285;-75
2023/01/13 10:55:42;;;;;;;;;0.00;0.00;;;;;11.07;64.76;100890.47;6301431;22;45597;-75
2023/01/13 11:01:30;;;;;;;;;0.00;0.00;;;;;11.21;64.80;100921.88;6301731;22;45571;-75
2023/01/13 11:03:55;;;;;;;;;1.00;0.00;;;;;11.23;64.90;100923.41;6301498;22;46498;-74
2023/01/13 11:06:29;;;;;;;;;0.00;0.00;;;;;11.27;64.98;100927.53;6301964;22;45676;-74
2023/01/13 11:08:57;;;;;;;;;1.00;0.00;;;;;11.32;64.83;100937.69;6301690;22;45732;-75
2023/01/13 11:11:44;;;;;;;;;1.00;0.00;;;;;11.40;64.76;100935.38;6301877;22;45589;-75
2023/01/13 11:14:32;;;;;;;;;0.75;0.00;;;;;11.42;64.77;100951.03;6301365;22;46893;-75
2023/01/13 11:17:01;;;;;;;;;0.00;0.00;;;;;11.43;64.56;100948.28;6301158;22;45747;-75
2023/01/13 11:19:31;;;;;;;;;1.00;0.00;;;;;11.42;64.52;100935.28;6300582;22;45464;-75
2023/01/13 11:22:03;;;;;;;;;1.00;1.00;;;;;11.46;64.71;100939.34;6299641;22;47070;-74
2023/01/13 11:24:38;;;;;;;;;0.75;0.00;;;;;11.44;63.73;100920.28;6298964;22;46285;-73
2023/01/13 11:27:20;;;;;;;;;3.75;1.00;;;;;11.50;64.02;100941.66;6299340;22;45527;-75
2023/01/13 11:29:58;;;;;;;;;0.75;0.00;;;;;11.51;63.81;100945.13;6299948;22;45865;-75
2023/01/13 11:32:23;;;;;;;;;1.50;0.00;;;;;11.52;63.91;100950.28;6299486;22;46553;-74
2023/01/13 11:34:58;;;;;;;;;1.00;1.00;;;;;11.54;63.58;100951.03;6299438;22;46366;-74
2023/01/13 11:37:27;;;;;;;;;2.00;1.00;;;;;11.53;63.84;100938.84;6271669;22;45657;-74
2023/01/13 11:40:24;;;;;;;;;0.50;0.00;;;;;11.51;63.58;100953.84;6299768;22;45740;-74
2023/01/13 11:42:58;;;;;;;;;2.00;0.75;;;;;11.52;63.21;100962.56;6299085;22;46347;-75
2023/01/13 11:45:40;;;;;;;;;2.50;1.00;;;;;11.50;63.32;100960.03;6299475;22;45901;-73
2023/01/13 11:48:14;;;;;;;;;2.25;0.75;;;;;11.54;63.21;100984.28;6299503;22;45580;-75
2023/01/13 11:50:52;;;;;;;;;0.00;0.00;;;;;11.55;62.92;100960.53;6299439;22;45528;-74
2023/01/13 11:53:55;;;;;;;;;1.00;0.00;;;;;11.57;62.41;100981.44;6298935;22;46468;-74
2023/01/13 11:59:51;;;;;;;;;2.50;0.00;;;;;11.57;61.47;100977.03;6299089;22;45688;-74
2023/01/13 12:02:29;;;;;;;;;1.00;1.00;;;;;11.60;61.47;100978.63;6299694;22;45530;-75
2023/01/13 12:05:19;;;;;;;;;1.75;0.50;;;;;11.65;61.64;101008.00;6298479;22;46517;-75
2023/01/13 12:08:14;;;;;;;;;2.00;1.50;;;;;11.66;61.11;100973.75;6298417;22;47346;-75
2023/01/13 12:11:01;;;;;;;;;0.00;0.00;;;;;11.70;60.85;100966.53;6299279;22;45622;-74
2023/01/13 12:16:49;;;;;;;;;1.75;0.00;;;;;11.76;60.30;100943.34;6248452;22;1144966;-75
2023/01/13 12:19:31;;;;;;;;;4.00;0.75;;;;;11.78;60.05;100948.47;6301733;22;46071;-75
2023/01/13 12:22:08;;;;;;;;;1.00;0.00;;;;;11.81;59.71;100960.56;6301347;22;45710;-75
2023/01/13 12:24:55;;;;;;;;;0.25;0.00;;;;;11.84;59.72;100947.19;6301636;22;45788;-75
2023/01/13 12:27:31;;;;;;;;;0.25;0.00;;;;;11.91;59.40;100956.34;6302138;22;45412;-75
2023/01/13 12:30:04;;;;;;;;;2.50;1.00;;;;;11.91;59.22;100978.19;6301673;22;45950;-74
2023/01/13 12:32:36;;;;;;;;;1.00;0.00;;;;;11.95;59.10;100963.88;6301952;22;45657;-76
2023/01/13 12:35:36;;;;;;;;;2.75;1.25;;;;;11.95;58.84;100968.28;6301927;22;45399;-74
2023/01/13 12:38:15;;;;;;;;;1.00;1.00;;;;;11.98;59.22;100976.81;6302352;22;46422;-75
2023/01/13 12:41:25;;;;;;;;;1.00;1.00;;;;;12.02;59.05;101007.16;6302784;22;45919;-75
2023/01/13 12:46:54;;;;;;;;;2.00;1.00;;;;;12.01;58.45;100978.34;6302663;22;45608;-75
2023/01/13 12:49:21;;;;;;;;;0.25;0.00;;;;;12.04;58.54;100975.50;6301949;22;47261;-74
2023/01/13 12:51:49;;;;;;;;;1.00;0.00;;;;;12.12;58.35;100991.56;6303044;22;45965;-75
2023/01/13 12:54:32;;;;;;;;;0.00;0.00;;;;;12.10;58.44;100991.66;6302118;22;45623;-74
2023/01/13 12:56:58;;;;;;;;;2.50;1.25;;;;;12.14;58.12;100979.19;6302934;22;45545;-75
2023/01/13 12:59:23;;;;;;;;;1.25;0.25;;;;;12.19;57.88;100988.41;6302681;22;46268;-74
2023/01/13 13:02:10;;;;;;;;;1.00;0.00;;;;;12.18;57.54;100985.88;6303044;22;45562;-75
2023/01/13 13:04:48;;;;;;;;;1.75;1.00;;;;;12.23;58.13;100980.28;6302220;22;45540;-76
2023/01/13 13:07:31;;;;;;;;;0.75;0.00;;;;;12.23;57.89;100982.91;6302691;22;45689;-75
2023/01/13 13:09:59;;;;;;;;;0.75;0.75;;;;;12.22;57.75;100982.06;6302212;22;47332;-75
2023/01/13 13:15:50;;;;;;;;;1.25;0.00;;;;;12.06;57.83;100956.06;6302494;22;45670;-75
2023/01/13 13:18:15;;;;;;;;;2.00;1.00;;;;;12.18;58.01;100975.38;6297296;22;46086;-74
2023/01/13 13:21:01;;;;;;;;;2.00;1.00;;;;;12.23;58.07;100969.78;6302759;22;46384;-75
2023/01/13 13:23:34;;;;;;;;;1.00;1.00;;;;;12.27;57.88;100995.72;6302732;22;46101;-75
2023/01/13 13:26:22;;;;;;;;;2.50;1.00;;;;;12.24;57.91;100977.56;6302634;22;45755;-76
2023/01/13 13:32:31;;;;;;;;;0.75;0.75;;;;;12.21;57.59;100983.00;6302364;22;45592;-75
2023/01/13 13:35:21;;;;;;;;;3.00;0.50;;;;;12.23;57.37;101009.19;6301799;22;47209;-75
2023/01/13 13:46:48;;;;;;;;;2.50;1.00;;;;;12.25;57.08;101007.31;6302525;22;45848;-75
2023/01/13 13:49:33;;;;;;;;;1.00;0.00;;;;;12.24;56.63;101014.34;6301934;22;45723;-75
2023/01/13 13:52:00;;;;;;;;;2.00;1.00;;;;;12.24;56.67;101022.22;6303930;22;45601;-74
2023/01/13 13:54:26;;;;;;;;;3.00;1.00;;;;;12.26;56.89;101017.69;6304125;22;45716;-74
2023/01/13 13:56:52;;;;;;;;;2.25;0.25;;;;;12.34;56.46;101022.41;6301531;22;45531;-75
2023/01/13 13:59:24;;;;;;;;;2.75;0.25;;;;;12.40;56.56;101020.16;6302289;22;45440;-75
2023/01/13 14:02:02;;;;;;;;;2.50;0.50;;;;;12.44;56.66;101026.03;6302706;22;45585;-75
2023/01/13 14:04:37;;;;;;;;;1.00;0.00;;;;;12.42;56.49;101047.16;6301797;22;46559;-75